sensor_id;sensor_type;location;lat;lon;timestamp;P1;durP1;ratioP1;P2;durP2;ratioP2
45812;SDS011;31519;45.408;10.962;2023-01-28T00:02:04;35.15;;;16.33;;
45812;SDS011;31519;45.408;10.962;2023-01-28T00:04:32;30.83;;;14.85;;
45812;SDS011;31519;45.408;10.962;2023-01-28T00:07:00;44.80;;;15.07;;
45812;SDS011;31519;45.408;10.962;2023-01-28T00:09:29;39.58;;;15.25;;
45812;SDS011;31519;45.408;10.962;2023-01-28T00:11:57;30.08;;;14.25;;
45812;SDS011;31519;45.408;10.962;2023-01-28T00:14:27;35.85;;;15.48;;
45812;SDS011;31519;45.408;10.962;2023-01-28T00:16:55;41.10;;;15.50;;
45812;SDS011;31519;45.408;10.962;2023-01-28T00:19:23;37.97;;;16.10;;
45812;SDS011;31519;45.408;10.962;2023-01-28T00:21:51;29.63;;;14.13;;
45812;SDS011;31519;45.408;10.962;2023-01-28T00:24:19;37.20;;;15.02;;
45812;SDS011;31519;45.408;10.962;2023-01-28T00:26:47;38.25;;;14.93;;
45812;SDS011;31519;45.408;10.962;2023-01-28T00:29:15;33.78;;;14.68;;
45812;SDS011;31519;45.408;10.962;2023-01-28T00:31:43;57.25;;;20.98;;
45812;SDS011;31519;45.408;10.962;2023-01-28T00:34:12;32.38;;;13.30;;
45812;SDS011;31519;45.408;10.962;2023-01-28T00:36:40;28.45;;;13.50;;
45812;SDS011;31519;45.408;10.962;2023-01-28T00:39:10;31.92;;;14.02;;
45812;SDS011;31519;45.408;10.962;2023-01-28T00:41:41;29.00;;;13.40;;
45812;SDS011;31519;45.408;10.962;2023-01-28T00:44:10;32.17;;;13.52;;
45812;SDS011;31519;45.408;10.962;2023-01-28T00:46:38;29.67;;;12.52;;
45812;SDS011;31519;45.408;10.962;2023-01-28T00:49:08;33.33;;;12.77;;
45812;SDS011;31519;45.408;10.962;2023-01-28T00:51:37;29.33;;;13.48;;
45812;SDS011;31519;45.408;10.962;2023-01-28T00:54:06;27.02;;;13.18;;
45812;SDS011;31519;45.408;10.962;2023-01-28T00:56:34;29.17;;;14.45;;
45812;SDS011;31519;45.408;10.962;2023-01-28T00:59:06;26.83;;;11.57;;
45812;SDS011;31519;45.408;10.962;2023-01-28T01:01:34;27.77;;;12.60;;
45812;SDS011;31519;45.408;10.962;2023-01-28T01:04:03;23.55;;;12.73;;
45812;SDS011;31519;45.408;10.962;2023-01-28T01:06:35;29.33;;;12.13;;
45812;SDS011;31519;45.408;10.962;2023-01-28T01:09:09;26.92;;;14.75;;
45812;SDS011;31519;45.408;10.962;2023-01-28T01:11:40;31.30;;;16.08;;
45812;SDS011;31519;45.408;10.962;2023-01-28T01:14:08;31.02;;;14.30;;
45812;SDS011;31519;45.408;10.962;2023-01-28T01:16:39;28.25;;;12.50;;
45812;SDS011;31519;45.408;10.962;2023-01-28T01:19:09;25.63;;;12.00;;
45812;SDS011;31519;45.408;10.962;2023-01-28T01:21:36;30.73;;;14.77;;
45812;SDS011;31519;45.408;10.962;2023-01-28T01:24:05;26.48;;;13.38;;
45812;SDS011;31519;45.408;10.962;2023-01-28T01:26:33;26.13;;;13.38;;
45812;SDS011;31519;45.408;10.962;2023-01-28T01:29:01;27.30;;;12.98;;
45812;SDS011;31519;45.408;10.962;2023-01-28T01:31:29;34.22;;;13.63;;
45812;SDS011;31519;45.408;10.962;2023-01-28T01:34:00;24.30;;;12.23;;
45812;SDS011;31519;45.408;10.962;2023-01-28T01:36:28;26.65;;;11.73;;
45812;SDS011;31519;45.408;10.962;2023-01-28T01:38:56;31.95;;;12.43;;
45812;SDS011;31519;45.408;10.962;2023-01-28T01:41:29;28.83;;;13.05;;
45812;SDS011;31519;45.408;10.962;2023-01-28T01:44:00;27.13;;;11.77;;
45812;SDS011;31519;45.408;10.962;2023-01-28T01:46:48;24.73;;;10.93;;
45812;SDS011;31519;45.408;10.962;2023-01-28T01:51:54;22.48;;;11.15;;
45812;SDS011;31519;45.408;10.962;2023-01-28T01:54:34;20.80;;;10.27;;
45812;SDS011;31519;45.408;10.962;2023-01-28T01:57:05;20.52;;;9.63;;
45812;SDS011;31519;45.408;10.962;2023-01-28T01:59:37;26.13;;;10.45;;
45812;SDS011;31519;45.408;10.962;2023-01-28T02:02:07;24.75;;;10.05;;
45812;SDS011;31519;45.408;10.962;2023-01-28T02:04:40;22.45;;;11.23;;
45812;SDS011;31519;45.408;10.962;2023-01-28T02:07:15;29.73;;;11.90;;
45812;SDS011;31519;45.408;10.962;2023-01-28T02:09:45;21.30;;;10.65;;
45812;SDS011;31519;45.408;10.962;2023-01-28T02:12:15;25.05;;;10.48;;
45812;SDS011;31519;45.408;10.962;2023-01-28T02:15:23;24.48;;;10.98;;
45812;SDS011;31519;45.408;10.962;2023-01-28T02:17:44;24.35;;;10.55;;
45812;SDS011;31519;45.408;10.962;2023-01-28T02:20:21;24.98;;;10.43;;
45812;SDS011;31519;45.408;10.962;2023-01-28T02:29:14;25.05;;;11.00;;
45812;SDS011;31519;45.408;10.962;2023-01-28T02:34:44;26.17;;;11.52;;
45812;SDS011;31519;45.408;10.962;2023-01-28T02:37:30;39.72;;;12.43;;
45812;SDS011;31519;45.408;10.962;2023-01-28T02:40:27;26.63;;;11.98;;
45812;SDS011;31519;45.408;10.962;2023-01-28T02:42:58;25.35;;;12.35;;
45812;SDS011;31519;45.408;10.962;2023-01-28T02:45:29;25.27;;;12.40;;
45812;SDS011;31519;45.408;10.962;2023-01-28T02:48:19;27.70;;;12.55;;
45812;SDS011;31519;45.408;10.962;2023-01-28T02:53:46;27.38;;;13.40;;
45812;SDS011;31519;45.408;10.962;2023-01-28T03:07:48;28.63;;;12.90;;
45812;SDS011;31519;45.408;10.962;2023-01-28T03:10:19;25.52;;;12.15;;
45812;SDS011;31519;45.408;10.962;2023-01-28T03:12:52;27.90;;;11.98;;
45812;SDS011;31519;45.408;10.962;2023-01-28T03:15:43;23.45;;;12.07;;
45812;SDS011;31519;45.408;10.962;2023-01-28T03:18:40;34.22;;;13.68;;
45812;SDS011;31519;45.408;10.962;2023-01-28T03:21:34;23.48;;;11.73;;
45812;SDS011;31519;45.408;10.962;2023-01-28T03:24:29;26.58;;;12.70;;
45812;SDS011;31519;45.408;10.962;2023-01-28T03:30:36;23.52;;;10.70;;
45812;SDS011;31519;45.408;10.962;2023-01-28T03:33:40;29.85;;;10.90;;
45812;SDS011;31519;45.408;10.962;2023-01-28T03:36:28;23.10;;;10.52;;
45812;SDS011;31519;45.408;10.962;2023-01-28T03:39:37;28.23;;;12.35;;
45812;SDS011;31519;45.408;10.962;2023-01-28T03:42:09;27.77;;;12.50;;
45812;SDS011;31519;45.408;10.962;2023-01-28T03:45:07;25.35;;;11.27;;
45812;SDS011;31519;45.408;10.962;2023-01-28T03:47:36;21.30;;;10.70;;
45812;SDS011;31519;45.408;10.962;2023-01-28T03:50:11;28.20;;;13.38;;
45812;SDS011;31519;45.408;10.962;2023-01-28T03:52:50;25.55;;;11.32;;
45812;SDS011;31519;45.408;10.962;2023-01-28T03:55:26;22.23;;;10.77;;
45812;SDS011;31519;45.408;10.962;2023-01-28T03:57:54;22.02;;;10.63;;
45812;SDS011;31519;45.408;10.962;2023-01-28T04:00:22;24.55;;;10.50;;
45812;SDS011;31519;45.408;10.962;2023-01-28T04:02:51;22.98;;;9.57;;
45812;SDS011;31519;45.408;10.962;2023-01-28T04:05:21;21.75;;;11.35;;
45812;SDS011;31519;45.408;10.962;2023-01-28T04:07:53;29.40;;;11.18;;
45812;SDS011;31519;45.408;10.962;2023-01-28T04:10:43;24.08;;;10.23;;
45812;SDS011;31519;45.408;10.962;2023-01-28T04:13:25;20.02;;;10.80;;
45812;SDS011;31519;45.408;10.962;2023-01-28T04:15:54;23.38;;;9.85;;
45812;SDS011;31519;45.408;10.962;2023-01-28T04:18:22;22.20;;;9.82;;
45812;SDS011;31519;45.408;10.962;2023-01-28T04:20:56;19.38;;;10.25;;
45812;SDS011;31519;45.408;10.962;2023-01-28T04:23:24;19.90;;;10.40;;
45812;SDS011;31519;45.408;10.962;2023-01-28T04:25:54;18.35;;;10.15;;
45812;SDS011;31519;45.408;10.962;2023-01-28T04:28:22;17.67;;;8.98;;
45812;SDS011;31519;45.408;10.962;2023-01-28T04:30:51;19.45;;;9.77;;
45812;SDS011;31519;45.408;10.962;2023-01-28T04:33:31;20.80;;;9.10;;
45812;SDS011;31519;45.408;10.962;2023-01-28T04:36:13;20.55;;;10.25;;
45812;SDS011;31519;45.408;10.962;2023-01-28T04:38:45;23.73;;;10.20;;
45812;SDS011;31519;45.408;10.962;2023-01-28T04:41:31;21.20;;;10.05;;
45812;SDS011;31519;45.408;10.962;2023-01-28T04:44:07;25.23;;;10.85;;
45812;SDS011;31519;45.408;10.962;2023-01-28T04:47:01;24.17;;;10.32;;
45812;SDS011;31519;45.408;10.962;2023-01-28T04:49:45;21.70;;;10.60;;
45812;SDS011;31519;45.408;10.962;2023-01-28T04:52:25;24.05;;;10.05;;
45812;SDS011;31519;45.408;10.962;2023-01-28T04:54:56;27.15;;;9.65;;
45812;SDS011;31519;45.408;10.962;2023-01-28T04:57:25;24.70;;;11.25;;
45812;SDS011;31519;45.408;10.962;2023-01-28T04:59:53;24.13;;;11.10;;
45812;SDS011;31519;45.408;10.962;2023-01-28T05:02:21;19.83;;;10.70;;
45812;SDS011;31519;45.408;10.962;2023-01-28T05:04:50;24.98;;;10.38;;
45812;SDS011;31519;45.408;10.962;2023-01-28T05:07:52;24.13;;;12.38;;
45812;SDS011;31519;45.408;10.962;2023-01-28T05:10:22;24.65;;;10.73;;
45812;SDS011;31519;45.408;10.962;2023-01-28T05:12:53;30.45;;;9.75;;
45812;SDS011;31519;45.408;10.962;2023-01-28T05:15:21;21.20;;;10.80;;
45812;SDS011;31519;45.408;10.962;2023-01-28T05:17:53;22.05;;;10.38;;
45812;SDS011;31519;45.408;10.962;2023-01-28T05:20:24;30.00;;;11.20;;
45812;SDS011;31519;45.408;10.962;2023-01-28T05:22:58;22.15;;;10.85;;
45812;SDS011;31519;45.408;10.962;2023-01-28T05:25:35;29.40;;;10.38;;
45812;SDS011;31519;45.408;10.962;2023-01-28T05:28:03;25.65;;;10.48;;
45812;SDS011;31519;45.408;10.962;2023-01-28T05:30:31;25.73;;;12.07;;
45812;SDS011;31519;45.408;10.962;2023-01-28T05:33:00;25.25;;;11.02;;
45812;SDS011;31519;45.408;10.962;2023-01-28T05:35:29;22.38;;;10.20;;
45812;SDS011;31519;45.408;10.962;2023-01-28T05:37:57;21.92;;;10.15;;
45812;SDS011;31519;45.408;10.962;2023-01-28T05:40:26;23.20;;;10.05;;
45812;SDS011;31519;45.408;10.962;2023-01-28T05:42:55;23.80;;;10.65;;
45812;SDS011;31519;45.408;10.962;2023-01-28T05:45:53;30.63;;;11.25;;
45812;SDS011;31519;45.408;10.962;2023-01-28T05:48:32;24.13;;;11.48;;
45812;SDS011;31519;45.408;10.962;2023-01-28T05:51:25;23.23;;;11.57;;
45812;SDS011;31519;45.408;10.962;2023-01-28T05:53:57;24.52;;;11.20;;
45812;SDS011;31519;45.408;10.962;2023-01-28T05:56:25;22.10;;;10.32;;
45812;SDS011;31519;45.408;10.962;2023-01-28T05:58:53;21.42;;;10.30;;
45812;SDS011;31519;45.408;10.962;2023-01-28T06:01:21;19.40;;;10.48;;
45812;SDS011;31519;45.408;10.962;2023-01-28T06:03:53;21.42;;;10.23;;
45812;SDS011;31519;45.408;10.962;2023-01-28T06:06:21;29.75;;;12.82;;
45812;SDS011;31519;45.408;10.962;2023-01-28T06:08:50;29.75;;;11.48;;
45812;SDS011;31519;45.408;10.962;2023-01-28T06:11:24;23.73;;;10.98;;
45812;SDS011;31519;45.408;10.962;2023-01-28T06:13:58;31.35;;;11.18;;
45812;SDS011;31519;45.408;10.962;2023-01-28T06:16:46;27.33;;;11.95;;
45812;SDS011;31519;45.408;10.962;2023-01-28T06:19:36;24.75;;;12.30;;
45812;SDS011;31519;45.408;10.962;2023-01-28T06:22:05;24.75;;;11.70;;
45812;SDS011;31519;45.408;10.962;2023-01-28T06:24:34;29.50;;;12.35;;
45812;SDS011;31519;45.408;10.962;2023-01-28T06:27:02;30.45;;;11.70;;
45812;SDS011;31519;45.408;10.962;2023-01-28T06:29:32;24.42;;;11.80;;
45812;SDS011;31519;45.408;10.962;2023-01-28T06:32:00;25.92;;;12.05;;
45812;SDS011;31519;45.408;10.962;2023-01-28T06:34:28;23.27;;;11.40;;
45812;SDS011;31519;45.408;10.962;2023-01-28T06:36:56;46.58;;;12.48;;
45812;SDS011;31519;45.408;10.962;2023-01-28T06:39:26;31.83;;;11.20;;
45812;SDS011;31519;45.408;10.962;2023-01-28T06:41:58;23.80;;;12.30;;
45812;SDS011;31519;45.408;10.962;2023-01-28T06:44:28;29.52;;;12.18;;
45812;SDS011;31519;45.408;10.962;2023-01-28T06:46:56;26.70;;;10.68;;
45812;SDS011;31519;45.408;10.962;2023-01-28T06:49:24;27.67;;;13.07;;
45812;SDS011;31519;45.408;10.962;2023-01-28T06:51:52;32.75;;;11.88;;
45812;SDS011;31519;45.408;10.962;2023-01-28T06:54:21;31.35;;;11.98;;
45812;SDS011;31519;45.408;10.962;2023-01-28T06:56:49;24.08;;;13.02;;
45812;SDS011;31519;45.408;10.962;2023-01-28T06:59:17;30.83;;;12.10;;
45812;SDS011;31519;45.408;10.962;2023-01-28T07:01:45;29.65;;;12.18;;
45812;SDS011;31519;45.408;10.962;2023-01-28T07:04:15;29.20;;;12.75;;
45812;SDS011;31519;45.408;10.962;2023-01-28T07:06:43;27.92;;;11.82;;
45812;SDS011;31519;45.408;10.962;2023-01-28T07:09:11;24.67;;;11.52;;
45812;SDS011;31519;45.408;10.962;2023-01-28T07:11:39;23.48;;;11.40;;
45812;SDS011;31519;45.408;10.962;2023-01-28T07:14:08;30.77;;;12.15;;
45812;SDS011;31519;45.408;10.962;2023-01-28T07:16:36;32.00;;;12.50;;
45812;SDS011;31519;45.408;10.962;2023-01-28T07:19:05;33.00;;;11.88;;
45812;SDS011;31519;45.408;10.962;2023-01-28T07:21:33;26.00;;;12.63;;
45812;SDS011;31519;45.408;10.962;2023-01-28T07:24:02;26.05;;;12.85;;
45812;SDS011;31519;45.408;10.962;2023-01-28T07:26:32;32.10;;;12.25;;
45812;SDS011;31519;45.408;10.962;2023-01-28T07:29:00;33.13;;;12.05;;
45812;SDS011;31519;45.408;10.962;2023-01-28T07:31:28;30.65;;;12.43;;
45812;SDS011;31519;45.408;10.962;2023-01-28T07:33:58;34.97;;;12.27;;
45812;SDS011;31519;45.408;10.962;2023-01-28T07:36:25;30.55;;;12.45;;
45812;SDS011;31519;45.408;10.962;2023-01-28T07:38:54;30.55;;;11.98;;
45812;SDS011;31519;45.408;10.962;2023-01-28T07:41:22;30.88;;;11.80;;
45812;SDS011;31519;45.408;10.962;2023-01-28T07:43:50;26.58;;;13.32;;
45812;SDS011;31519;45.408;10.962;2023-01-28T07:46:18;61.30;;;15.15;;
45812;SDS011;31519;45.408;10.962;2023-01-28T07:48:46;53.58;;;13.20;;
45812;SDS011;31519;45.408;10.962;2023-01-28T07:51:14;33.88;;;11.25;;
45812;SDS011;31519;45.408;10.962;2023-01-28T07:53:43;24.95;;;11.88;;
45812;SDS011;31519;45.408;10.962;2023-01-28T07:56:11;22.73;;;10.80;;
45812;SDS011;31519;45.408;10.962;2023-01-28T07:58:40;21.58;;;10.27;;
45812;SDS011;31519;45.408;10.962;2023-01-28T08:01:08;23.13;;;10.98;;
45812;SDS011;31519;45.408;10.962;2023-01-28T08:03:36;27.38;;;11.50;;
45812;SDS011;31519;45.408;10.962;2023-01-28T08:06:04;21.33;;;12.18;;
45812;SDS011;31519;45.408;10.962;2023-01-28T08:08:33;27.38;;;11.55;;
45812;SDS011;31519;45.408;10.962;2023-01-28T08:11:09;21.95;;;11.20;;
45812;SDS011;31519;45.408;10.962;2023-01-28T08:13:38;23.17;;;11.68;;
45812;SDS011;31519;45.408;10.962;2023-01-28T08:16:06;24.90;;;10.00;;
45812;SDS011;31519;45.408;10.962;2023-01-28T08:18:34;23.45;;;10.82;;
45812;SDS011;31519;45.408;10.962;2023-01-28T08:21:02;23.48;;;11.98;;
45812;SDS011;31519;45.408;10.962;2023-01-28T08:23:33;20.70;;;9.93;;
45812;SDS011;31519;45.408;10.962;2023-01-28T08:26:01;19.58;;;8.88;;
45812;SDS011;31519;45.408;10.962;2023-01-28T08:28:29;21.83;;;10.18;;
45812;SDS011;31519;45.408;10.962;2023-01-28T08:30:59;16.17;;;8.40;;
45812;SDS011;31519;45.408;10.962;2023-01-28T08:33:28;19.75;;;9.23;;
45812;SDS011;31519;45.408;10.962;2023-01-28T08:35:56;15.25;;;9.15;;
45812;SDS011;31519;45.408;10.962;2023-01-28T08:38:24;22.38;;;9.80;;
45812;SDS011;31519;45.408;10.962;2023-01-28T08:40:52;22.30;;;11.27;;
45812;SDS011;31519;45.408;10.962;2023-01-28T08:43:24;26.73;;;11.57;;
45812;SDS011;31519;45.408;10.962;2023-01-28T08:45:52;27.23;;;13.60;;
45812;SDS011;31519;45.408;10.962;2023-01-28T08:48:21;35.15;;;17.27;;
45812;SDS011;31519;45.408;10.962;2023-01-28T08:50:49;27.67;;;14.25;;
45812;SDS011;31519;45.408;10.962;2023-01-28T08:53:18;24.23;;;12.45;;
45812;SDS011;31519;45.408;10.962;2023-01-28T08:55:46;29.55;;;12.20;;
45812;SDS011;31519;45.408;10.962;2023-01-28T08:58:16;27.30;;;11.80;;
45812;SDS011;31519;45.408;10.962;2023-01-28T09:00:45;23.83;;;10.90;;
45812;SDS011;31519;45.408;10.962;2023-01-28T09:03:14;21.73;;;11.30;;
45812;SDS011;31519;45.408;10.962;2023-01-28T09:05:41;22.45;;;11.30;;
45812;SDS011;31519;45.408;10.962;2023-01-28T09:08:12;24.52;;;11.07;;
45812;SDS011;31519;45.408;10.962;2023-01-28T09:10:41;28.67;;;12.20;;
45812;SDS011;31519;45.408;10.962;2023-01-28T09:13:12;22.15;;;10.52;;
45812;SDS011;31519;45.408;10.962;2023-01-28T09:15:42;15.18;;;8.90;;
45812;SDS011;31519;45.408;10.962;2023-01-28T09:18:11;23.48;;;11.82;;
45812;SDS011;31519;45.408;10.962;2023-01-28T09:20:39;24.27;;;10.65;;
45812;SDS011;31519;45.408;10.962;2023-01-28T09:23:07;22.17;;;10.18;;
45812;SDS011;31519;45.408;10.962;2023-01-28T09:25:36;22.30;;;10.32;;
45812;SDS011;31519;45.408;10.962;2023-01-28T09:28:05;22.88;;;10.35;;
45812;SDS011;31519;45.408;10.962;2023-01-28T09:30:34;19.67;;;9.95;;
45812;SDS011;31519;45.408;10.962;2023-01-28T09:33:05;25.30;;;11.85;;
45812;SDS011;31519;45.408;10.962;2023-01-28T09:35:34;23.00;;;10.57;;
45812;SDS011;31519;45.408;10.962;2023-01-28T09:38:03;26.70;;;10.13;;
45812;SDS011;31519;45.408;10.962;2023-01-28T09:40:42;21.25;;;9.98;;
45812;SDS011;31519;45.408;10.962;2023-01-28T09:43:18;17.17;;;9.20;;
45812;SDS011;31519;45.408;10.962;2023-01-28T09:45:57;21.90;;;10.32;;
45812;SDS011;31519;45.408;10.962;2023-01-28T09:48:39;19.48;;;10.93;;
45812;SDS011;31519;45.408;10.962;2023-01-28T09:54:49;23.00;;;10.00;;
45812;SDS011;31519;45.408;10.962;2023-01-28T09:57:02;23.45;;;10.27;;
45812;SDS011;31519;45.408;10.962;2023-01-28T09:59:34;24.20;;;11.10;;
45812;SDS011;31519;45.408;10.962;2023-01-28T10:02:22;25.35;;;11.15;;
45812;SDS011;31519;45.408;10.962;2023-01-28T10:11:37;20.35;;;11.35;;
45812;SDS011;31519;45.408;10.962;2023-01-28T10:13:53;19.23;;;10.32;;
45812;SDS011;31519;45.408;10.962;2023-01-28T10:16:33;23.38;;;11.20;;
45812;SDS011;31519;45.408;10.962;2023-01-28T10:19:07;23.00;;;11.65;;
45812;SDS011;31519;45.408;10.962;2023-01-28T10:21:51;20.48;;;10.80;;
45812;SDS011;31519;45.408;10.962;2023-01-28T10:24:34;25.95;;;12.07;;
45812;SDS011;31519;45.408;10.962;2023-01-28T10:27:16;24.95;;;11.15;;
45812;SDS011;31519;45.408;10.962;2023-01-28T10:29:48;28.88;;;11.90;;
45812;SDS011;31519;45.408;10.962;2023-01-28T10:34:53;22.85;;;10.98;;
45812;SDS011;31519;45.408;10.962;2023-01-28T10:37:22;22.35;;;11.00;;
45812;SDS011;31519;45.408;10.962;2023-01-28T10:39:51;21.55;;;11.70;;
45812;SDS011;31519;45.408;10.962;2023-01-28T10:42:30;23.70;;;12.57;;
45812;SDS011;31519;45.408;10.962;2023-01-28T10:47:53;23.92;;;13.10;;
45812;SDS011;31519;45.408;10.962;2023-01-28T10:50:27;28.80;;;14.20;;
45812;SDS011;31519;45.408;10.962;2023-01-28T10:52:58;25.30;;;14.05;;
45812;SDS011;31519;45.408;10.962;2023-01-28T10:55:33;27.35;;;13.50;;
45812;SDS011;31519;45.408;10.962;2023-01-28T10:58:17;25.13;;;13.00;;
45812;SDS011;31519;45.408;10.962;2023-01-28T11:00:51;23.58;;;12.85;;
45812;SDS011;31519;45.408;10.962;2023-01-28T11:03:25;24.85;;;13.05;;
45812;SDS011;31519;45.408;10.962;2023-01-28T11:05:54;27.35;;;13.43;;
45812;SDS011;31519;45.408;10.962;2023-01-28T11:08:24;25.88;;;12.35;;
45812;SDS011;31519;45.408;10.962;2023-01-28T11:10:55;26.13;;;12.75;;
45812;SDS011;31519;45.408;10.962;2023-01-28T11:13:25;23.60;;;12.50;;
45812;SDS011;31519;45.408;10.962;2023-01-28T11:16:03;21.70;;;12.55;;
45812;SDS011;31519;45.408;10.962;2023-01-28T11:18:45;20.73;;;11.40;;
45812;SDS011;31519;45.408;10.962;2023-01-28T11:21:19;20.42;;;11.30;;
45812;SDS011;31519;45.408;10.962;2023-01-28T11:26:34;21.15;;;11.07;;
45812;SDS011;31519;45.408;10.962;2023-01-28T11:29:05;21.02;;;11.05;;
45812;SDS011;31519;45.408;10.962;2023-01-28T11:31:38;21.13;;;12.25;;
45812;SDS011;31519;45.408;10.962;2023-01-28T11:34:11;21.85;;;11.57;;
45812;SDS011;31519;45.408;10.962;2023-01-28T11:36:51;20.05;;;11.40;;
45812;SDS011;31519;45.408;10.962;2023-01-28T11:39:22;22.60;;;12.30;;
45812;SDS011;31519;45.408;10.962;2023-01-28T11:42:02;24.52;;;10.98;;
45812;SDS011;31519;45.408;10.962;2023-01-28T11:44:45;22.33;;;10.05;;
45812;SDS011;31519;45.408;10.962;2023-01-28T11:47:18;21.60;;;10.15;;
45812;SDS011;31519;45.408;10.962;2023-01-28T11:50:22;16.92;;;9.73;;
45812;SDS011;31519;45.408;10.962;2023-01-28T11:58:55;15.98;;;8.93;;
45812;SDS011;31519;45.408;10.962;2023-01-28T12:06:52;17.85;;;7.95;;
45812;SDS011;31519;45.408;10.962;2023-01-28T12:09:54;15.60;;;6.95;;
45812;SDS011;31519;45.408;10.962;2023-01-28T12:21:04;16.25;;;8.40;;
45812;SDS011;31519;45.408;10.962;2023-01-28T12:29:50;15.20;;;9.90;;
45812;SDS011;31519;45.408;10.962;2023-01-28T12:34:55;19.50;;;10.40;;
45812;SDS011;31519;45.408;10.962;2023-01-28T12:37:49;19.23;;;9.60;;
45812;SDS011;31519;45.408;10.962;2023-01-28T12:40:40;18.65;;;9.10;;
45812;SDS011;31519;45.408;10.962;2023-01-28T12:45:56;16.40;;;8.82;;
45812;SDS011;31519;45.408;10.962;2023-01-28T12:48:45;14.00;;;8.00;;
45812;SDS011;31519;45.408;10.962;2023-01-28T12:51:19;16.73;;;9.25;;
45812;SDS011;31519;45.408;10.962;2023-01-28T12:54:03;16.55;;;7.97;;
45812;SDS011;31519;45.408;10.962;2023-01-28T12:56:40;12.45;;;7.95;;
45812;SDS011;31519;45.408;10.962;2023-01-28T12:59:36;10.73;;;6.90;;
45812;SDS011;31519;45.408;10.962;2023-01-28T13:02:45;13.38;;;7.00;;
45812;SDS011;31519;45.408;10.962;2023-01-28T13:05:07;13.25;;;8.23;;
45812;SDS011;31519;45.408;10.962;2023-01-28T13:07:46;14.15;;;7.88;;
45812;SDS011;31519;45.408;10.962;2023-01-28T13:10:28;13.55;;;8.02;;
45812;SDS011;31519;45.408;10.962;2023-01-28T13:13:03;15.32;;;8.50;;
45812;SDS011;31519;45.408;10.962;2023-01-28T13:15:32;17.33;;;8.55;;
45812;SDS011;31519;45.408;10.962;2023-01-28T13:18:27;14.32;;;8.27;;
45812;SDS011;31519;45.408;10.962;2023-01-28T13:20:55;14.38;;;8.25;;
45812;SDS011;31519;45.408;10.962;2023-01-28T13:26:07;13.65;;;8.27;;
45812;SDS011;31519;45.408;10.962;2023-01-28T13:28:38;15.75;;;8.45;;
45812;SDS011;31519;45.408;10.962;2023-01-28T13:31:07;16.33;;;8.18;;
45812;SDS011;31519;45.408;10.962;2023-01-28T13:33:59;21.95;;;9.27;;
45812;SDS011;31519;45.408;10.962;2023-01-28T13:36:42;17.25;;;8.70;;
45812;SDS011;31519;45.408;10.962;2023-01-28T13:41:41;12.90;;;8.23;;
45812;SDS011;31519;45.408;10.962;2023-01-28T13:46:53;12.65;;;7.88;;
45812;SDS011;31519;45.408;10.962;2023-01-28T13:49:27;16.25;;;7.78;;
45812;SDS011;31519;45.408;10.962;2023-01-28T13:55:22;15.00;;;7.57;;
45812;SDS011;31519;45.408;10.962;2023-01-28T14:16:30;15.88;;;8.35;;
45812;SDS011;31519;45.408;10.962;2023-01-28T14:19:24;11.55;;;7.55;;
45812;SDS011;31519;45.408;10.962;2023-01-28T14:21:55;12.52;;;7.47;;
45812;SDS011;31519;45.408;10.962;2023-01-28T14:24:23;10.35;;;7.00;;
45812;SDS011;31519;45.408;10.962;2023-01-28T14:32:30;7.47;;;5.82;;
45812;SDS011;31519;45.408;10.962;2023-01-28T14:35:03;19.48;;;7.88;;
45812;SDS011;31519;45.408;10.962;2023-01-28T14:37:35;11.38;;;7.32;;
45812;SDS011;31519;45.408;10.962;2023-01-28T14:40:05;14.48;;;7.30;;
45812;SDS011;31519;45.408;10.962;2023-01-28T14:42:39;11.88;;;7.28;;
45812;SDS011;31519;45.408;10.962;2023-01-28T14:56:20;11.32;;;6.68;;
45812;SDS011;31519;45.408;10.962;2023-01-28T15:01:41;13.23;;;8.63;;
45812;SDS011;31519;45.408;10.962;2023-01-28T15:07:16;16.02;;;7.88;;
45812;SDS011;31519;45.408;10.962;2023-01-28T15:10:03;14.57;;;8.65;;
45812;SDS011;31519;45.408;10.962;2023-01-28T15:12:36;19.70;;;11.40;;
45812;SDS011;31519;45.408;10.962;2023-01-28T15:15:10;12.13;;;7.30;;
45812;SDS011;31519;45.408;10.962;2023-01-28T15:17:46;13.65;;;7.38;;
45812;SDS011;31519;45.408;10.962;2023-01-28T15:20:17;14.30;;;7.40;;
45812;SDS011;31519;45.408;10.962;2023-01-28T15:22:48;11.30;;;6.93;;
45812;SDS011;31519;45.408;10.962;2023-01-28T15:25:21;9.13;;;5.78;;
45812;SDS011;31519;45.408;10.962;2023-01-28T15:27:51;12.23;;;8.02;;
45812;SDS011;31519;45.408;10.962;2023-01-28T15:30:23;14.18;;;7.05;;
45812;SDS011;31519;45.408;10.962;2023-01-28T15:32:57;10.68;;;6.72;;
45812;SDS011;31519;45.408;10.962;2023-01-28T15:35:34;9.88;;;5.88;;
45812;SDS011;31519;45.408;10.962;2023-01-28T15:38:02;9.65;;;6.55;;
45812;SDS011;31519;45.408;10.962;2023-01-28T15:40:38;8.77;;;6.18;;
45812;SDS011;31519;45.408;10.962;2023-01-28T15:43:16;7.45;;;5.35;;
45812;SDS011;31519;45.408;10.962;2023-01-28T15:45:51;9.40;;;5.88;;
45812;SDS011;31519;45.408;10.962;2023-01-28T15:48:25;10.35;;;5.88;;
45812;SDS011;31519;45.408;10.962;2023-01-28T15:51:00;10.30;;;6.53;;
45812;SDS011;31519;45.408;10.962;2023-01-28T15:53:44;11.27;;;6.95;;
45812;SDS011;31519;45.408;10.962;2023-01-28T15:56:14;12.27;;;6.65;;
45812;SDS011;31519;45.408;10.962;2023-01-28T15:58:43;12.07;;;7.88;;
45812;SDS011;31519;45.408;10.962;2023-01-28T16:01:13;15.32;;;8.15;;
45812;SDS011;31519;45.408;10.962;2023-01-28T16:03:43;14.13;;;7.60;;
45812;SDS011;31519;45.408;10.962;2023-01-28T16:06:17;16.02;;;7.63;;
45812;SDS011;31519;45.408;10.962;2023-01-28T16:08:53;12.05;;;7.28;;
45812;SDS011;31519;45.408;10.962;2023-01-28T16:11:29;14.05;;;7.95;;
45812;SDS011;31519;45.408;10.962;2023-01-28T16:14:03;15.50;;;8.77;;
45812;SDS011;31519;45.408;10.962;2023-01-28T16:16:33;14.40;;;8.45;;
45812;SDS011;31519;45.408;10.962;2023-01-28T16:19:04;15.27;;;9.10;;
45812;SDS011;31519;45.408;10.962;2023-01-28T16:21:34;20.08;;;8.85;;
45812;SDS011;31519;45.408;10.962;2023-01-28T16:24:06;21.30;;;8.07;;
45812;SDS011;31519;45.408;10.962;2023-01-28T16:27:00;12.93;;;7.65;;
45812;SDS011;31519;45.408;10.962;2023-01-28T16:29:34;15.40;;;8.30;;
45812;SDS011;31519;45.408;10.962;2023-01-28T16:32:03;16.02;;;8.18;;
45812;SDS011;31519;45.408;10.962;2023-01-28T16:34:51;17.50;;;8.27;;
45812;SDS011;31519;45.408;10.962;2023-01-28T16:37:20;19.73;;;8.43;;
45812;SDS011;31519;45.408;10.962;2023-01-28T16:39:48;22.88;;;8.48;;
45812;SDS011;31519;45.408;10.962;2023-01-28T16:42:17;13.88;;;8.73;;
45812;SDS011;31519;45.408;10.962;2023-01-28T16:44:45;17.27;;;8.90;;
45812;SDS011;31519;45.408;10.962;2023-01-28T16:47:13;18.25;;;9.63;;
45812;SDS011;31519;45.408;10.962;2023-01-28T16:49:41;20.40;;;9.70;;
45812;SDS011;31519;45.408;10.962;2023-01-28T16:52:10;20.60;;;9.82;;
45812;SDS011;31519;45.408;10.962;2023-01-28T16:54:38;20.80;;;9.43;;
45812;SDS011;31519;45.408;10.962;2023-01-28T16:57:12;17.50;;;9.27;;
45812;SDS011;31519;45.408;10.962;2023-01-28T16:59:42;21.37;;;9.70;;
45812;SDS011;31519;45.408;10.962;2023-01-28T17:02:13;17.88;;;8.98;;